createdAt,value
2022-10-24T00:01:35.359Z,8.52
2022-10-24T00:04:03.023Z,9.35
2022-10-24T00:06:32.141Z,9.00
2022-10-24T00:08:59.947Z,9.85
2022-10-24T00:11:28.275Z,8.95
2022-10-24T00:13:57.480Z,9.52
2022-10-24T00:16:25.737Z,9.88
2022-10-24T00:18:54.617Z,9.27
2022-10-24T00:21:22.914Z,9.95
2022-10-24T00:23:55.598Z,12.25
2022-10-24T00:26:23.935Z,12.07
2022-10-24T00:28:52.589Z,10.82
2022-10-24T00:31:22.247Z,10.98
2022-10-24T00:33:50.389Z,11.35
2022-10-24T00:36:20.894Z,10.23
2022-10-24T00:38:52.061Z,12.10
2022-10-24T00:41:29.100Z,12.85
2022-10-24T00:44:15.869Z,10.55
2022-10-24T00:46:54.907Z,11.27
2022-10-24T00:49:46.367Z,11.20
2022-10-24T00:52:16.965Z,11.63
2022-10-24T00:54:47.151Z,11.52
2022-10-24T00:59:46.429Z,11.10
2022-10-24T01:04:44.867Z,14.60
2022-10-24T01:07:30.442Z,13.93
2022-10-24T01:10:42.446Z,12.25
2022-10-24T01:13:22.648Z,12.93
2022-10-24T01:16:00.834Z,16.67
2022-10-24T01:18:35.378Z,13.43
2022-10-24T01:21:24.710Z,13.75
2022-10-24T01:24:27.413Z,13.95
2022-10-24T01:27:02.064Z,12.88
2022-10-24T01:29:41.694Z,15.13
2022-10-24T01:32:20.043Z,14.10
2022-10-24T01:35:14.892Z,14.80
2022-10-24T01:38:00.119Z,13.98
2022-10-24T01:40:59.008Z,12.65
2022-10-24T01:43:34.880Z,15.43
2022-10-24T01:46:13.131Z,18.17
2022-10-24T01:48:45.881Z,18.45
2022-10-24T01:51:15.834Z,17.17
2022-10-24T01:53:47.216Z,18.67
2022-10-24T01:56:14.982Z,18.25
2022-10-24T01:58:43.093Z,18.52
2022-10-24T02:01:17.030Z,14.68
2022-10-24T02:03:55.682Z,19.35
2022-10-24T02:06:28.658Z,16.10
2022-10-24T02:11:37.864Z,17.10
2022-10-24T02:14:21.176Z,16.92
2022-10-24T02:16:50.610Z,18.02
2022-10-24T02:19:19.244Z,18.33
2022-10-24T02:22:01.508Z,16.13
2022-10-24T02:24:45.246Z,17.48
2022-10-24T02:27:18.466Z,17.85
2022-10-24T02:30:14.342Z,18.98
2022-10-24T02:32:48.457Z,20.58
2022-10-24T02:35:19.978Z,18.98
2022-10-24T02:37:52.691Z,17.63
2022-10-24T02:40:22.625Z,20.70
2022-10-24T02:42:55.291Z,19.98
2022-10-24T02:45:25.173Z,21.98
2022-10-24T02:47:57.903Z,21.58
2022-10-24T02:50:26.429Z,21.40
2022-10-24T02:52:53.957Z,23.77
2022-10-24T02:55:22.505Z,20.70
2022-10-24T02:57:50.623Z,21.38
2022-10-24T03:00:18.871Z,21.30
2022-10-24T03:02:48.985Z,25.02
2022-10-24T03:05:16.716Z,27.83
2022-10-24T03:07:44.228Z,25.60
2022-10-24T03:10:11.833Z,23.15
2022-10-24T03:12:43.507Z,22.40
2022-10-24T03:15:11.779Z,24.48
2022-10-24T03:17:39.452Z,22.30
2022-10-24T03:20:08.822Z,20.60
2022-10-24T03:22:36.428Z,22.25
2022-10-24T03:25:05.884Z,23.13
2022-10-24T03:27:34.557Z,24.08
2022-10-24T03:30:02.229Z,21.55
2022-10-24T03:32:29.990Z,21.23
2022-10-24T03:34:57.793Z,19.83
2022-10-24T03:37:26.055Z,26.48
2022-10-24T03:39:53.527Z,20.83
2022-10-24T03:42:21.285Z,20.55
2022-10-24T03:44:49.048Z,20.55
2022-10-24T03:47:18.208Z,19.17
2022-10-24T03:49:45.952Z,20.27
2022-10-24T03:52:13.644Z,17.17
2022-10-24T03:57:10.967Z,21.73
2022-10-24T03:59:38.610Z,17.08
2022-10-24T04:02:06.825Z,18.63
2022-10-24T04:04:34.520Z,15.18
2022-10-24T04:07:02.181Z,18.08
2022-10-24T04:09:29.813Z,14.27
2022-10-24T04:11:58.337Z,16.40
2022-10-24T04:14:26.043Z,15.60
2022-10-24T04:16:54.358Z,18.98
2022-10-24T04:19:22.732Z,15.35
2022-10-24T04:21:50.472Z,13.70
2022-10-24T04:24:18.652Z,15.13
2022-10-24T04:26:46.380Z,14.93
2022-10-24T04:29:13.988Z,13.07
2022-10-24T04:31:41.515Z,14.13
2022-10-24T04:34:09.067Z,13.70
2022-10-24T04:36:37.269Z,12.27
2022-10-24T04:39:05.570Z,13.05
2022-10-24T04:41:34.445Z,12.25
2022-10-24T04:44:02.053Z,12.82
2022-10-24T04:46:29.716Z,12.95
2022-10-24T04:48:57.440Z,11.57
2022-10-24T04:51:25.097Z,9.68
2022-10-24T04:53:52.820Z,10.40
2022-10-24T04:56:20.442Z,10.38
2022-10-24T04:58:47.985Z,12.32
2022-10-24T05:01:15.576Z,9.60
2022-10-24T05:03:43.114Z,11.40
2022-10-24T05:06:10.828Z,11.55
2022-10-24T05:08:38.583Z,9.80
2022-10-24T05:11:09.894Z,10.50
2022-10-24T05:13:39.140Z,10.05
2022-10-24T05:16:08.117Z,11.38
2022-10-24T05:18:35.869Z,10.88
2022-10-24T05:21:03.656Z,10.45
2022-10-24T05:23:31.829Z,11.52
2022-10-24T05:25:59.597Z,14.10
2022-10-24T05:28:27.278Z,10.23
2022-10-24T05:30:54.824Z,9.40
2022-10-24T05:33:23.964Z,8.52
2022-10-24T05:35:52.056Z,12.07
2022-10-24T05:38:19.657Z,9.65
2022-10-24T05:40:51.530Z,12.10
2022-10-24T05:43:19.276Z,9.05
2022-10-24T05:45:52.097Z,8.50
2022-10-24T05:48:19.833Z,16.65
2022-10-24T05:50:47.380Z,10.90
2022-10-24T05:53:15.093Z,12.73
2022-10-24T05:55:42.661Z,12.25
2022-10-24T05:58:10.284Z,12.80
2022-10-24T06:00:37.914Z,9.98
2022-10-24T06:03:05.468Z,11.68
2022-10-24T06:05:33.016Z,12.55
2022-10-24T06:08:00.612Z,12.60
2022-10-24T06:10:28.344Z,13.02
2022-10-24T06:12:57.326Z,13.23
2022-10-24T06:15:25.178Z,12.32
2022-10-24T06:17:54.491Z,10.95
2022-10-24T06:20:22.041Z,12.50
2022-10-24T06:22:50.193Z,13.45
2022-10-24T06:25:17.768Z,11.13
2022-10-24T06:27:46.292Z,13.38
2022-10-24T06:30:14.289Z,12.18
2022-10-24T06:32:44.495Z,10.48
2022-10-24T06:35:14.818Z,11.48
2022-10-24T06:37:47.125Z,10.55
2022-10-24T06:40:18.307Z,11.55
2022-10-24T06:42:46.251Z,14.32
2022-10-24T06:45:14.709Z,12.70
2022-10-24T06:47:42.815Z,12.00
2022-10-24T06:50:10.940Z,10.15
2022-10-24T06:52:38.612Z,9.70
2022-10-24T06:55:07.273Z,10.00
2022-10-24T06:57:34.845Z,9.13
2022-10-24T07:00:02.618Z,11.27
2022-10-24T07:02:30.613Z,11.93
2022-10-24T07:04:59.183Z,9.38
2022-10-24T07:07:27.205Z,10.70
2022-10-24T07:09:57.264Z,10.93
2022-10-24T07:12:25.962Z,12.40
2022-10-24T07:14:54.693Z,17.10
2022-10-24T07:17:23.148Z,10.15
2022-10-24T07:19:55.022Z,10.07
2022-10-24T07:22:23.483Z,10.23
2022-10-24T07:24:54.432Z,9.77
2022-10-24T07:27:23.276Z,9.88
2022-10-24T07:29:52.420Z,11.13
2022-10-24T07:32:20.972Z,7.65
2022-10-24T07:34:49.635Z,8.38
2022-10-24T07:37:18.383Z,8.13
2022-10-24T07:39:46.790Z,8.57
2022-10-24T07:42:15.435Z,7.03
2022-10-24T07:44:43.199Z,9.37
2022-10-24T07:47:12.135Z,8.32
2022-10-24T07:49:40.132Z,8.57
2022-10-24T07:52:07.937Z,7.13
2022-10-24T07:54:37.317Z,7.60
2022-10-24T07:57:05.617Z,6.00
2022-10-24T07:59:48.504Z,6.80
2022-10-24T08:02:17.223Z,6.13
2022-10-24T08:04:45.538Z,8.45
2022-10-24T08:07:13.744Z,15.15
2022-10-24T08:09:45.312Z,18.73
2022-10-24T08:12:13.684Z,8.70
2022-10-24T08:14:41.835Z,7.10
2022-10-24T08:17:09.848Z,6.32
2022-10-24T08:19:43.809Z,6.75
2022-10-24T08:22:13.194Z,7.68
2022-10-24T08:24:44.086Z,6.40
2022-10-24T08:29:39.905Z,7.75
2022-10-24T08:32:07.800Z,7.85
2022-10-24T08:34:37.520Z,6.90
2022-10-24T08:37:05.326Z,6.95
2022-10-24T08:39:32.980Z,7.88
2022-10-24T08:42:07.172Z,7.20
2022-10-24T08:44:44.142Z,8.18
2022-10-24T08:50:23.545Z,7.55
2022-10-24T08:52:59.300Z,6.55
2022-10-24T08:55:48.715Z,6.03
2022-10-24T08:58:23.942Z,5.68
2022-10-24T09:00:57.684Z,5.85
2022-10-24T09:03:56.189Z,6.43
2022-10-24T09:06:27.734Z,6.93
2022-10-24T09:08:58.587Z,5.05
2022-10-24T09:11:59.548Z,5.43
2022-10-24T09:14:36.770Z,7.50
2022-10-24T09:17:30.441Z,6.53
2022-10-24T09:20:24.408Z,6.22
2022-10-24T09:23:04.002Z,5.43
2022-10-24T09:25:35.412Z,7.10
2022-10-24T09:28:05.771Z,6.55
2022-10-24T09:30:36.485Z,9.07
2022-10-24T09:33:26.180Z,5.68
2022-10-24T09:38:36.723Z,5.45
2022-10-24T09:41:06.147Z,4.47
2022-10-24T09:43:40.049Z,4.57
2022-10-24T09:46:11.261Z,6.03
2022-10-24T09:48:55.457Z,4.03
2022-10-24T09:51:47.885Z,20.75
2022-10-24T09:54:18.568Z,2.92
2022-10-24T09:56:52.231Z,7.35
2022-10-24T09:59:22.200Z,2.92
2022-10-24T10:01:49.830Z,5.53
2022-10-24T10:04:19.669Z,2.83
2022-10-24T10:06:50.828Z,3.55
2022-10-24T10:09:27.411Z,3.15
2022-10-24T10:12:02.632Z,3.70
2022-10-24T10:14:30.669Z,3.67
2022-10-24T10:17:05.377Z,3.72
2022-10-24T10:19:37.832Z,4.30
2022-10-24T10:22:29.999Z,5.38
2022-10-24T10:24:59.773Z,2.65
2022-10-24T10:30:13.489Z,2.80
2022-10-24T10:33:08.856Z,3.25
2022-10-24T10:35:57.642Z,4.30
2022-10-24T10:38:40.736Z,4.07
2022-10-24T10:41:14.414Z,3.47
2022-10-24T10:44:12.750Z,3.65
2022-10-24T10:46:43.205Z,3.13
2022-10-24T10:49:41.200Z,3.80
2022-10-24T10:52:38.054Z,4.75
2022-10-24T10:55:30.950Z,3.28
2022-10-24T10:58:19.606Z,2.90
2022-10-24T11:00:53.493Z,3.03
2022-10-24T11:03:34.117Z,6.75
2022-10-24T11:06:19.713Z,2.88
2022-10-24T11:08:56.163Z,3.25
2022-10-24T11:11:34.753Z,3.47
2022-10-24T11:14:21.221Z,5.65
2022-10-24T11:16:55.796Z,2.97
2022-10-24T11:19:30.112Z,3.45
2022-10-24T11:22:00.144Z,2.78
2022-10-24T11:24:32.442Z,2.58
2022-10-24T11:27:22.490Z,2.88
2022-10-24T11:30:15.546Z,3.05
2022-10-24T11:32:48.043Z,4.60
2022-10-24T11:35:34.090Z,3.78
2022-10-24T11:38:20.936Z,14.98
2022-10-24T11:40:58.614Z,8.05
2022-10-24T11:43:27.677Z,4.05
2022-10-24T11:46:12.427Z,3.78
2022-10-24T11:49:00.541Z,4.22
2022-10-24T11:51:51.566Z,4.63
2022-10-24T11:54:25.360Z,4.03
2022-10-24T11:56:58.889Z,2.80
2022-10-24T11:59:26.675Z,3.25
2022-10-24T12:02:31.393Z,4.97
2022-10-24T12:05:20.243Z,2.50
2022-10-24T12:08:12.476Z,2.97
2022-10-24T12:10:53.524Z,5.70
2022-10-24T12:16:55.501Z,5.30
2022-10-24T12:19:24.626Z,2.67
2022-10-24T12:21:57.916Z,4.07
2022-10-24T12:24:39.067Z,3.92
2022-10-24T12:27:21.813Z,4.15
2022-10-24T12:30:21.934Z,3.38
2022-10-24T12:32:53.748Z,13.18
2022-10-24T12:35:30.442Z,4.32
2022-10-24T12:37:59.754Z,5.60
2022-10-24T12:40:45.481Z,3.73
2022-10-24T12:43:33.261Z,3.28
2022-10-24T12:46:15.890Z,3.72
2022-10-24T12:48:59.581Z,5.82
2022-10-24T12:51:41.193Z,4.93
2022-10-24T12:54:11.629Z,2.88
2022-10-24T12:56:51.615Z,5.40
2022-10-24T12:59:29.411Z,3.50
2022-10-24T13:02:50.078Z,2.63
2022-10-24T13:05:45.423Z,3.42
2022-10-24T13:08:51.505Z,4.18
2022-10-24T13:11:33.171Z,4.20
2022-10-24T13:14:19.616Z,2.83
2022-10-24T13:17:13.412Z,2.40
2022-10-24T13:19:41.102Z,3.72
2022-10-24T13:22:30.601Z,2.20
2022-10-24T13:24:59.976Z,2.75
2022-10-24T13:27:30.711Z,3.60
2022-10-24T13:29:59.544Z,2.67
2022-10-24T13:32:36.108Z,3.30
2022-10-24T13:35:06.087Z,4.97
2022-10-24T13:37:50.771Z,4.75
2022-10-24T13:40:35.882Z,4.75
2022-10-24T13:43:15.573Z,3.03
2022-10-24T13:46:04.330Z,3.47
2022-10-24T13:48:37.919Z,2.90
2022-10-24T13:51:24.399Z,4.28
2022-10-24T13:54:00.795Z,5.47
2022-10-24T13:56:35.408Z,4.22
2022-10-24T13:59:03.280Z,10.13
2022-10-24T14:01:31.632Z,3.00
2022-10-24T14:04:00.619Z,4.00
2022-10-24T14:06:32.295Z,5.07
2022-10-24T14:09:10.329Z,5.43
2022-10-24T14:11:47.134Z,8.65
2022-10-24T14:14:29.225Z,4.97
2022-10-24T14:17:26.968Z,8.45
2022-10-24T14:20:00.955Z,6.10
2022-10-24T14:22:40.769Z,6.55
2022-10-24T14:25:24.243Z,11.48
2022-10-24T14:27:55.768Z,8.18
2022-10-24T14:30:30.718Z,7.60
2022-10-24T14:33:14.038Z,5.53
2022-10-24T14:38:15.689Z,28.05
2022-10-24T14:40:45.295Z,9.07
2022-10-24T14:46:01.219Z,7.20
2022-10-24T14:48:29.996Z,5.88
2022-10-24T14:51:07.179Z,12.27
2022-10-24T14:53:39.094Z,10.73
2022-10-24T14:56:24.451Z,8.80
2022-10-24T14:58:53.479Z,7.88
2022-10-24T15:01:23.527Z,7.60
2022-10-24T15:03:58.784Z,8.48
2022-10-24T15:06:44.239Z,9.25
2022-10-24T15:09:11.840Z,7.00
2022-10-24T15:11:45.721Z,14.45
2022-10-24T15:14:39.463Z,7.60
2022-10-24T15:17:32.711Z,9.48
2022-10-24T15:20:02.721Z,9.65
2022-10-24T15:22:36.858Z,10.15
2022-10-24T15:25:19.189Z,14.05
2022-10-24T15:27:48.673Z,10.50
2022-10-24T15:30:21.575Z,13.65
2022-10-24T15:32:51.029Z,8.80
2022-10-24T15:35:18.746Z,11.30
2022-10-24T15:38:03.009Z,11.13
2022-10-24T15:40:34.438Z,7.47
2022-10-24T15:43:02.485Z,10.07
2022-10-24T15:45:30.036Z,10.30
2022-10-24T15:47:57.644Z,8.15
2022-10-24T15:50:25.240Z,10.77
2022-10-24T15:52:56.001Z,10.18
2022-10-24T15:55:26.570Z,8.68
2022-10-24T15:57:57.754Z,22.35
2022-10-24T16:00:25.928Z,27.00
2022-10-24T16:02:57.926Z,12.68
2022-10-24T16:05:30.127Z,7.28
2022-10-24T16:07:58.059Z,8.80
2022-10-24T16:10:26.751Z,9.67
2022-10-24T16:12:54.916Z,5.93
2022-10-24T16:18:04.783Z,8.48
2022-10-24T16:20:33.016Z,10.05
2022-10-24T16:23:00.955Z,9.40
2022-10-24T16:25:31.170Z,9.98
2022-10-24T16:27:59.937Z,10.05
2022-10-24T16:30:30.574Z,8.85
2022-10-24T16:32:58.837Z,9.40
2022-10-24T16:35:29.825Z,8.15
2022-10-24T16:37:58.844Z,11.82
2022-10-24T16:40:27.404Z,9.45
2022-10-24T16:42:57.901Z,10.88
2022-10-24T16:45:25.779Z,6.65
2022-10-24T16:47:53.282Z,8.93
2022-10-24T16:50:26.497Z,7.63
2022-10-24T16:52:55.487Z,7.75
2022-10-24T16:55:23.393Z,8.70
2022-10-24T16:57:51.496Z,9.20
2022-10-24T17:00:21.117Z,7.97
2022-10-24T17:02:52.677Z,8.82
2022-10-24T17:05:23.991Z,10.90
2022-10-24T17:07:51.971Z,8.15
2022-10-24T17:10:23.685Z,9.32
2022-10-24T17:12:53.565Z,10.55
2022-10-24T17:15:22.413Z,7.07
2022-10-24T17:17:50.327Z,8.87
2022-10-24T17:20:17.931Z,8.68
2022-10-24T17:22:47.579Z,11.60
2022-10-24T17:25:24.937Z,8.18
2022-10-24T17:27:54.185Z,8.40
2022-10-24T17:30:27.383Z,10.07
2022-10-24T17:32:55.127Z,10.68
2022-10-24T17:35:25.098Z,8.45
2022-10-24T17:38:17.790Z,9.83
2022-10-24T17:40:47.709Z,9.98
2022-10-24T17:43:23.117Z,8.10
2022-10-24T17:45:51.676Z,7.50
2022-10-24T17:48:19.558Z,6.63
2022-10-24T17:50:49.351Z,9.13
2022-10-24T17:53:19.083Z,9.73
2022-10-24T17:58:16.702Z,9.15
2022-10-24T18:00:44.986Z,10.15
2022-10-24T18:03:14.407Z,11.32
2022-10-24T18:05:42.181Z,9.10
2022-10-24T18:08:11.682Z,7.90
2022-10-24T18:10:40.826Z,14.13
2022-10-24T18:13:12.477Z,15.50
2022-10-24T18:15:40.352Z,10.60
2022-10-24T18:18:08.294Z,9.65
2022-10-24T18:20:36.117Z,9.75
2022-10-24T18:23:04.033Z,10.23
2022-10-24T18:25:31.674Z,13.60
2022-10-24T18:27:59.294Z,11.32
2022-10-24T18:30:27.430Z,10.55
2022-10-24T18:32:55.128Z,9.63
2022-10-24T18:35:23.201Z,12.90
2022-10-24T18:40:23.992Z,12.45
2022-10-24T18:43:04.164Z,10.30
2022-10-24T18:45:35.115Z,10.15
2022-10-24T18:48:03.183Z,13.52
2022-10-24T18:50:30.927Z,16.73
2022-10-24T18:53:06.038Z,15.98
2022-10-24T18:55:34.834Z,12.77
2022-10-24T18:58:03.613Z,13.73
2022-10-24T19:00:33.135Z,12.40
2022-10-24T19:03:17.369Z,12.75
2022-10-24T19:05:52.092Z,12.80
2022-10-24T19:08:25.470Z,13.40
2022-10-24T19:10:56.395Z,16.20
2022-10-24T19:13:27.076Z,13.60
2022-10-24T19:16:00.805Z,11.27
2022-10-24T19:18:31.191Z,12.50
2022-10-24T19:20:59.570Z,15.13
2022-10-24T19:23:27.955Z,14.02
2022-10-24T19:25:55.468Z,12.73
2022-10-24T19:28:23.069Z,11.13
2022-10-24T19:30:50.641Z,14.25
2022-10-24T19:33:18.872Z,14.88
2022-10-24T19:35:49.660Z,14.25
2022-10-24T19:38:19.169Z,14.45
2022-10-24T19:40:52.100Z,21.20
2022-10-24T19:43:25.251Z,16.33
2022-10-24T19:46:07.659Z,18.80
2022-10-24T19:48:43.372Z,21.70
2022-10-24T19:51:13.164Z,19.20
2022-10-24T19:58:42.940Z,19.77
2022-10-24T20:01:16.898Z,21.10
2022-10-24T20:03:47.414Z,20.38
2022-10-24T20:06:15.780Z,18.15
2022-10-24T20:08:48.216Z,20.83
2022-10-24T20:11:20.435Z,21.30
2022-10-24T20:13:53.125Z,20.55
2022-10-24T20:16:21.136Z,20.52
2022-10-24T20:18:49.870Z,21.23
2022-10-24T20:21:18.494Z,25.35
2022-10-24T20:23:48.055Z,21.13
2022-10-24T20:26:19.001Z,21.88
2022-10-24T20:28:48.719Z,22.73
2022-10-24T20:34:06.774Z,21.50
2022-10-24T20:36:37.797Z,22.77
2022-10-24T20:39:07.249Z,23.38
2022-10-24T20:41:35.815Z,24.00
2022-10-24T20:44:07.123Z,21.75
2022-10-24T20:46:36.316Z,19.88
2022-10-24T20:49:04.335Z,18.00
2022-10-24T20:51:32.860Z,17.45
2022-10-24T20:54:00.418Z,19.92
2022-10-24T20:56:28.241Z,22.98
2022-10-24T20:58:56.260Z,40.72
2022-10-24T21:01:26.803Z,22.90
2022-10-24T21:03:55.712Z,23.42
2022-10-24T21:06:29.512Z,20.33
2022-10-24T21:09:00.043Z,17.63
2022-10-24T21:11:30.456Z,18.00
2022-10-24T21:14:03.099Z,19.08
2022-10-24T21:16:31.459Z,19.08
2022-10-24T21:18:59.832Z,17.88
2022-10-24T21:21:27.887Z,17.63
2022-10-24T21:24:05.666Z,16.23
2022-10-24T21:26:38.495Z,15.30
2022-10-24T21:29:31.250Z,13.38
2022-10-24T21:31:55.890Z,14.82
2022-10-24T21:34:23.801Z,14.45
2022-10-24T21:36:51.282Z,14.55
2022-10-24T21:39:18.981Z,14.23
2022-10-24T21:41:46.827Z,9.60
2022-10-24T21:44:14.833Z,10.95
2022-10-24T21:46:42.539Z,10.40
2022-10-24T21:49:10.792Z,12.23
2022-10-24T21:51:42.894Z,11.73
2022-10-24T21:54:22.682Z,10.00
2022-10-24T21:56:50.793Z,9.55
2022-10-24T21:59:20.423Z,11.38
2022-10-24T22:01:50.649Z,11.10
2022-10-24T22:04:19.152Z,15.48
2022-10-24T22:06:48.883Z,10.43
2022-10-24T22:09:20.687Z,8.82
2022-10-24T22:11:48.749Z,7.88
2022-10-24T22:14:17.295Z,6.70
2022-10-24T22:16:45.408Z,8.70
2022-10-24T22:19:14.174Z,7.53
2022-10-24T22:21:44.986Z,6.50
2022-10-24T22:24:22.764Z,6.13
2022-10-24T22:26:52.657Z,8.15
2022-10-24T22:29:22.686Z,8.43
2022-10-24T22:31:52.828Z,8.63
2022-10-24T22:34:23.136Z,8.25
2022-10-24T22:37:05.526Z,7.97
2022-10-24T22:39:33.681Z,7.55
2022-10-24T22:42:01.473Z,11.57
2022-10-24T22:44:29.408Z,9.00
2022-10-24T22:46:56.897Z,8.88
2022-10-24T22:49:32.161Z,11.30
2022-10-24T22:52:00.085Z,9.88
2022-10-24T22:54:36.483Z,11.57
2022-10-24T22:57:04.996Z,11.80
2022-10-24T22:59:33.542Z,9.13
2022-10-24T23:02:34.028Z,9.90
2022-10-24T23:05:04.760Z,14.40
2022-10-24T23:07:33.538Z,12.40
2022-10-24T23:10:01.364Z,15.88
2022-10-24T23:12:30.679Z,12.88
2022-10-24T23:15:00.121Z,11.20
2022-10-24T23:17:30.414Z,11.77
2022-10-24T23:19:59.507Z,12.98
2022-10-24T23:22:29.237Z,10.93
2022-10-24T23:25:00.036Z,13.43
2022-10-24T23:27:37.644Z,12.98
2022-10-24T23:30:14.615Z,11.88
2022-10-24T23:32:43.850Z,12.38
2022-10-24T23:35:16.813Z,12.23
2022-10-24T23:37:48.021Z,16.55
2022-10-24T23:40:22.111Z,12.95
2022-10-24T23:42:50.743Z,14.15
2022-10-24T23:45:21.469Z,11.85
2022-10-24T23:48:20.229Z,13.30
2022-10-24T23:51:14.380Z,13.83
2022-10-24T23:53:51.342Z,11.90
2022-10-24T23:56:26.800Z,9.95
2022-10-24T23:58:56.469Z,8.93
